sensor_id;sensor_type;location;lat;lon;timestamp;pressure;altitude;pressure_sealevel;temperature;humidity
15272;BME280;7737;51.578;7.268;2023-07-13T00:02:16;100854.91;;;17.96;100.00
15272;BME280;7737;51.578;7.268;2023-07-13T00:04:42;100855.28;;;18.03;100.00
15272;BME280;7737;51.578;7.268;2023-07-13T00:07:08;100856.50;;;17.99;100.00
15272;BME280;7737;51.578;7.268;2023-07-13T00:09:35;100851.81;;;17.90;100.00
15272;BME280;7737;51.578;7.268;2023-07-13T00:12:02;100853.28;;;17.83;100.00
15272;BME280;7737;51.578;7.268;2023-07-13T00:14:29;100861.06;;;17.75;100.00
15272;BME280;7737;51.578;7.268;2023-07-13T00:16:55;100848.13;;;17.80;100.00
15272;BME280;7737;51.578;7.268;2023-07-13T00:19:23;100847.13;;;17.70;100.00
15272;BME280;7737;51.578;7.268;2023-07-13T00:21:50;100861.66;;;17.43;100.00
15272;BME280;7737;51.578;7.268;2023-07-13T00:24:18;100852.25;;;17.61;100.00
15272;BME280;7737;51.578;7.268;2023-07-13T00:26:48;100847.84;;;17.60;100.00
15272;BME280;7737;51.578;7.268;2023-07-13T00:29:15;100853.88;;;17.51;100.00
15272;BME280;7737;51.578;7.268;2023-07-13T00:31:41;100860.44;;;17.36;100.00
15272;BME280;7737;51.578;7.268;2023-07-13T00:34:09;100850.88;;;17.32;100.00
15272;BME280;7737;51.578;7.268;2023-07-13T00:36:36;100860.97;;;17.18;100.00
15272;BME280;7737;51.578;7.268;2023-07-13T00:39:03;100855.50;;;17.30;100.00
15272;BME280;7737;51.578;7.268;2023-07-13T00:41:30;100853.19;;;17.37;100.00
15272;BME280;7737;51.578;7.268;2023-07-13T00:43:57;100841.50;;;17.38;100.00
15272;BME280;7737;51.578;7.268;2023-07-13T00:46:26;100845.13;;;17.26;100.00
15272;BME280;7737;51.578;7.268;2023-07-13T00:48:54;100844.03;;;17.28;100.00
15272;BME280;7737;51.578;7.268;2023-07-13T00:51:26;100845.94;;;17.26;100.00
15272;BME280;7737;51.578;7.268;2023-07-13T00:53:56;100842.53;;;17.24;100.00
15272;BME280;7737;51.578;7.268;2023-07-13T00:56:25;100837.88;;;17.26;100.00
15272;BME280;7737;51.578;7.268;2023-07-13T00:58:52;100835.78;;;17.19;100.00
15272;BME280;7737;51.578;7.268;2023-07-13T01:01:19;100849.72;;;17.00;100.00
15272;BME280;7737;51.578;7.268;2023-07-13T01:03:46;100864.00;;;16.77;100.00
15272;BME280;7737;51.578;7.268;2023-07-13T01:06:13;100859.56;;;16.88;100.00
15272;BME280;7737;51.578;7.268;2023-07-13T01:08:39;100861.09;;;16.80;100.00
15272;BME280;7737;51.578;7.268;2023-07-13T01:11:07;100863.91;;;16.78;100.00
15272;BME280;7737;51.578;7.268;2023-07-13T01:13:34;100865.94;;;16.75;100.00
15272;BME280;7737;51.578;7.268;2023-07-13T01:16:03;100871.66;;;16.70;100.00
15272;BME280;7737;51.578;7.268;2023-07-13T01:18:31;100866.28;;;16.58;100.00
15272;BME280;7737;51.578;7.268;2023-07-13T01:21:00;100861.22;;;16.66;100.00
15272;BME280;7737;51.578;7.268;2023-07-13T01:23:28;100857.38;;;16.70;100.00
15272;BME280;7737;51.578;7.268;2023-07-13T01:25:56;100864.50;;;16.82;100.00
15272;BME280;7737;51.578;7.268;2023-07-13T01:28:24;100859.31;;;16.68;100.00
15272;BME280;7737;51.578;7.268;2023-07-13T01:30:52;100856.16;;;16.74;100.00
15272;BME280;7737;51.578;7.268;2023-07-13T01:33:19;100845.31;;;16.75;100.00
15272;BME280;7737;51.578;7.268;2023-07-13T01:35:46;100847.16;;;16.75;100.00
15272;BME280;7737;51.578;7.268;2023-07-13T01:38:16;100847.31;;;16.84;100.00
15272;BME280;7737;51.578;7.268;2023-07-13T01:40:43;100844.25;;;16.78;100.00
15272;BME280;7737;51.578;7.268;2023-07-13T01:43:10;100849.59;;;16.78;100.00
15272;BME280;7737;51.578;7.268;2023-07-13T01:45:38;100842.34;;;16.67;100.00
15272;BME280;7737;51.578;7.268;2023-07-13T01:48:05;100847.56;;;16.69;100.00
15272;BME280;7737;51.578;7.268;2023-07-13T01:50:32;100855.75;;;16.67;100.00
15272;BME280;7737;51.578;7.268;2023-07-13T01:52:59;100865.19;;;16.60;100.00
15272;BME280;7737;51.578;7.268;2023-07-13T01:55:28;100863.59;;;16.58;100.00
15272;BME280;7737;51.578;7.268;2023-07-13T01:57:55;100865.19;;;16.60;100.00
15272;BME280;7737;51.578;7.268;2023-07-13T02:00:22;100868.13;;;16.57;100.00
15272;BME280;7737;51.578;7.268;2023-07-13T02:02:50;100862.72;;;16.44;100.00
15272;BME280;7737;51.578;7.268;2023-07-13T02:05:16;100866.72;;;16.52;100.00
15272;BME280;7737;51.578;7.268;2023-07-13T02:07:43;100872.38;;;16.47;100.00
15272;BME280;7737;51.578;7.268;2023-07-13T02:10:10;100874.88;;;16.37;100.00
15272;BME280;7737;51.578;7.268;2023-07-13T02:12:39;100874.53;;;16.42;100.00
15272;BME280;7737;51.578;7.268;2023-07-13T02:15:06;100874.53;;;16.42;100.00
15272;BME280;7737;51.578;7.268;2023-07-13T02:17:33;100873.59;;;16.30;100.00
15272;BME280;7737;51.578;7.268;2023-07-13T02:20:00;100874.22;;;16.34;100.00
15272;BME280;7737;51.578;7.268;2023-07-13T02:22:27;100868.22;;;16.43;100.00
15272;BME280;7737;51.578;7.268;2023-07-13T02:24:54;100864.16;;;16.37;100.00
15272;BME280;7737;51.578;7.268;2023-07-13T02:27:20;100869.50;;;16.37;100.00
15272;BME280;7737;51.578;7.268;2023-07-13T02:29:48;100876.38;;;16.29;100.00
15272;BME280;7737;51.578;7.268;2023-07-13T02:32:16;100871.66;;;16.32;100.00
15272;BME280;7737;51.578;7.268;2023-07-13T02:34:43;100870.72;;;16.33;100.00
15272;BME280;7737;51.578;7.268;2023-07-13T02:37:09;100865.88;;;16.38;100.00
15272;BME280;7737;51.578;7.268;2023-07-13T02:39:36;100867.59;;;16.27;100.00
15272;BME280;7737;51.578;7.268;2023-07-13T02:42:02;100862.66;;;16.33;100.00
15272;BME280;7737;51.578;7.268;2023-07-13T02:44:29;100853.84;;;16.31;100.00
15272;BME280;7737;51.578;7.268;2023-07-13T02:46:57;100850.84;;;16.23;100.00
15272;BME280;7737;51.578;7.268;2023-07-13T02:49:23;100869.94;;;16.19;100.00
15272;BME280;7737;51.578;7.268;2023-07-13T02:51:50;100872.84;;;16.28;100.00
15272;BME280;7737;51.578;7.268;2023-07-13T02:54:17;100871.03;;;16.16;100.00
15272;BME280;7737;51.578;7.268;2023-07-13T02:56:43;100869.09;;;16.18;100.00
15272;BME280;7737;51.578;7.268;2023-07-13T02:59:10;100866.94;;;16.23;100.00
15272;BME280;7737;51.578;7.268;2023-07-13T03:01:37;100867.47;;;16.28;100.00
15272;BME280;7737;51.578;7.268;2023-07-13T03:04:05;100882.63;;;16.17;100.00
15272;BME280;7737;51.578;7.268;2023-07-13T03:06:32;100880.13;;;16.26;100.00
15272;BME280;7737;51.578;7.268;2023-07-13T03:08:58;100888.06;;;16.15;100.00
15272;BME280;7737;51.578;7.268;2023-07-13T03:11:26;100890.75;;;16.15;100.00
15272;BME280;7737;51.578;7.268;2023-07-13T03:13:53;100890.47;;;16.20;100.00
15272;BME280;7737;51.578;7.268;2023-07-13T03:16:19;100896.78;;;16.19;100.00
15272;BME280;7737;51.578;7.268;2023-07-13T03:18:47;100902.56;;;16.13;100.00
15272;BME280;7737;51.578;7.268;2023-07-13T03:21:15;100895.16;;;16.16;100.00
15272;BME280;7737;51.578;7.268;2023-07-13T03:23:42;100889.69;;;16.05;100.00
15272;BME280;7737;51.578;7.268;2023-07-13T03:26:10;100891.84;;;16.00;100.00
15272;BME280;7737;51.578;7.268;2023-07-13T03:28:38;100898.69;;;15.92;100.00
15272;BME280;7737;51.578;7.268;2023-07-13T03:31:07;100897.31;;;15.99;100.00
15272;BME280;7737;51.578;7.268;2023-07-13T03:33:34;100907.91;;;16.00;100.00
15272;BME280;7737;51.578;7.268;2023-07-13T03:36:02;100909.84;;;15.98;100.00
15272;BME280;7737;51.578;7.268;2023-07-13T03:38:30;100909.97;;;16.09;100.00
15272;BME280;7737;51.578;7.268;2023-07-13T03:40:56;100911.88;;;16.07;100.00
15272;BME280;7737;51.578;7.268;2023-07-13T03:43:22;100909.44;;;16.04;100.00
15272;BME280;7737;51.578;7.268;2023-07-13T03:45:49;100913.06;;;16.03;100.00
15272;BME280;7737;51.578;7.268;2023-07-13T03:48:15;100917.50;;;16.04;100.00
15272;BME280;7737;51.578;7.268;2023-07-13T03:50:42;100918.88;;;16.10;100.00
15272;BME280;7737;51.578;7.268;2023-07-13T03:53:08;100932.38;;;16.08;100.00
15272;BME280;7737;51.578;7.268;2023-07-13T03:55:36;100926.06;;;16.09;100.00
15272;BME280;7737;51.578;7.268;2023-07-13T03:58:25;100930.25;;;16.01;100.00
15272;BME280;7737;51.578;7.268;2023-07-13T04:00:52;100929.72;;;16.08;100.00
15272;BME280;7737;51.578;7.268;2023-07-13T04:03:19;100931.44;;;16.09;100.00
15272;BME280;7737;51.578;7.268;2023-07-13T04:05:45;100935.81;;;16.10;100.00
15272;BME280;7737;51.578;7.268;2023-07-13T04:08:12;100939.28;;;16.12;100.00
15272;BME280;7737;51.578;7.268;2023-07-13T04:10:40;100938.41;;;16.24;100.00
15272;BME280;7737;51.578;7.268;2023-07-13T04:13:06;100936.91;;;16.20;100.00
15272;BME280;7737;51.578;7.268;2023-07-13T04:15:33;100946.13;;;16.16;100.00
15272;BME280;7737;51.578;7.268;2023-07-13T04:17:59;100948.06;;;16.27;100.00
15272;BME280;7737;51.578;7.268;2023-07-13T04:20:26;100942.91;;;16.24;100.00
15272;BME280;7737;51.578;7.268;2023-07-13T04:22:52;100939.38;;;16.23;100.00
15272;BME280;7737;51.578;7.268;2023-07-13T04:25:20;100944.97;;;16.33;100.00
15272;BME280;7737;51.578;7.268;2023-07-13T04:27:48;100933.06;;;16.24;100.00
15272;BME280;7737;51.578;7.268;2023-07-13T04:30:14;100941.97;;;16.37;100.00
15272;BME280;7737;51.578;7.268;2023-07-13T04:32:41;100944.97;;;16.33;100.00
15272;BME280;7737;51.578;7.268;2023-07-13T04:35:08;100946.78;;;16.32;100.00
15272;BME280;7737;51.578;7.268;2023-07-13T04:37:35;100949.47;;;16.45;100.00
15272;BME280;7737;51.578;7.268;2023-07-13T04:40:02;100951.00;;;16.49;100.00
15272;BME280;7737;51.578;7.268;2023-07-13T04:42:29;100958.00;;;16.64;100.00
15272;BME280;7737;51.578;7.268;2023-07-13T04:44:57;100953.47;;;16.65;100.00
15272;BME280;7737;51.578;7.268;2023-07-13T04:47:24;100955.72;;;16.71;100.00
15272;BME280;7737;51.578;7.268;2023-07-13T04:49:50;100951.19;;;16.84;100.00
15272;BME280;7737;51.578;7.268;2023-07-13T04:52:17;100945.59;;;16.87;100.00
15272;BME280;7737;51.578;7.268;2023-07-13T04:54:43;100948.75;;;16.81;100.00
15272;BME280;7737;51.578;7.268;2023-07-13T04:57:10;100948.72;;;16.93;100.00
15272;BME280;7737;51.578;7.268;2023-07-13T04:59:36;100955.38;;;16.88;100.00
15272;BME280;7737;51.578;7.268;2023-07-13T05:02:04;100950.00;;;16.88;100.00
15272;BME280;7737;51.578;7.268;2023-07-13T05:04:31;100960.84;;;16.99;100.00
15272;BME280;7737;51.578;7.268;2023-07-13T05:06:58;100952.00;;;17.10;100.00
15272;BME280;7737;51.578;7.268;2023-07-13T05:09:25;100955.59;;;17.21;100.00
15272;BME280;7737;51.578;7.268;2023-07-13T05:11:52;100953.81;;;17.09;100.00
15272;BME280;7737;51.578;7.268;2023-07-13T05:14:18;100962.53;;;17.13;100.00
15272;BME280;7737;51.578;7.268;2023-07-13T05:16:45;100968.00;;;17.11;100.00
15272;BME280;7737;51.578;7.268;2023-07-13T05:19:12;100970.16;;;17.06;100.00
15272;BME280;7737;51.578;7.268;2023-07-13T05:21:39;100965.00;;;17.03;100.00
15272;BME280;7737;51.578;7.268;2023-07-13T05:24:06;100972.28;;;17.14;100.00
15272;BME280;7737;51.578;7.268;2023-07-13T05:26:32;100974.09;;;17.13;100.00
15272;BME280;7737;51.578;7.268;2023-07-13T05:28:59;100974.09;;;17.13;100.00
15272;BME280;7737;51.578;7.268;2023-07-13T05:31:25;100981.72;;;17.19;100.00
15272;BME280;7737;51.578;7.268;2023-07-13T05:33:53;100982.69;;;17.31;100.00
15272;BME280;7737;51.578;7.268;2023-07-13T05:36:21;100977.88;;;17.23;100.00
15272;BME280;7737;51.578;7.268;2023-07-13T05:38:47;100987.03;;;17.44;100.00
15272;BME280;7737;51.578;7.268;2023-07-13T05:41:14;100983.63;;;17.30;100.00
15272;BME280;7737;51.578;7.268;2023-07-13T05:43:40;100987.03;;;17.44;100.00
15272;BME280;7737;51.578;7.268;2023-07-13T05:46:06;100971.53;;;17.48;100.00
15272;BME280;7737;51.578;7.268;2023-07-13T05:48:33;100975.72;;;17.52;100.00
15272;BME280;7737;51.578;7.268;2023-07-13T05:51:00;100987.25;;;17.54;100.00
15272;BME280;7737;51.578;7.268;2023-07-13T05:53:29;100979.50;;;17.49;100.00
15272;BME280;7737;51.578;7.268;2023-07-13T05:55:55;100978.81;;;17.58;100.00
15272;BME280;7737;51.578;7.268;2023-07-13T05:58:22;100985.94;;;17.59;100.00
15272;BME280;7737;51.578;7.268;2023-07-13T06:00:59;100983.47;;;17.56;100.00
15272;BME280;7737;51.578;7.268;2023-07-13T06:03:25;100987.25;;;17.54;100.00
15272;BME280;7737;51.578;7.268;2023-07-13T06:05:52;100993.56;;;17.66;100.00
15272;BME280;7737;51.578;7.268;2023-07-13T06:08:18;100999.59;;;17.80;100.00
15272;BME280;7737;51.578;7.268;2023-07-13T06:10:46;100994.34;;;18.02;100.00
15272;BME280;7737;51.578;7.268;2023-07-13T06:13:13;101005.63;;;17.84;100.00
15272;BME280;7737;51.578;7.268;2023-07-13T06:15:39;101005.63;;;17.84;100.00
15272;BME280;7737;51.578;7.268;2023-07-13T06:18:06;101010.28;;;17.93;100.00
15272;BME280;7737;51.578;7.268;2023-07-13T06:20:33;101013.75;;;17.95;100.00
15272;BME280;7737;51.578;7.268;2023-07-13T06:23:01;101015.88;;;17.79;100.00
15272;BME280;7737;51.578;7.268;2023-07-13T06:25:27;101011.78;;;17.97;100.00
15272;BME280;7737;51.578;7.268;2023-07-13T06:27:55;101013.78;;;18.06;100.00
15272;BME280;7737;51.578;7.268;2023-07-13T06:30:21;101020.03;;;17.83;100.00
15272;BME280;7737;51.578;7.268;2023-07-13T06:32:48;101018.88;;;17.74;100.00
15272;BME280;7737;51.578;7.268;2023-07-13T06:35:15;101021.03;;;17.82;100.00
15272;BME280;7737;51.578;7.268;2023-07-13T06:37:41;101012.53;;;17.99;100.00
15272;BME280;7737;51.578;7.268;2023-07-13T06:40:09;101027.28;;;18.17;100.00
15272;BME280;7737;51.578;7.268;2023-07-13T06:42:35;101037.06;;;18.18;100.00
15272;BME280;7737;51.578;7.268;2023-07-13T06:45:06;101022.63;;;18.19;100.00
15272;BME280;7737;51.578;7.268;2023-07-13T06:47:32;101027.22;;;18.06;100.00
15272;BME280;7737;51.578;7.268;2023-07-13T06:49:59;101034.84;;;18.12;100.00
15272;BME280;7737;51.578;7.268;2023-07-13T06:52:26;101030.41;;;18.11;100.00
15272;BME280;7737;51.578;7.268;2023-07-13T06:54:53;101032.06;;;18.24;100.00
15272;BME280;7737;51.578;7.268;2023-07-13T06:57:19;101032.69;;;18.28;100.00
15272;BME280;7737;51.578;7.268;2023-07-13T06:59:46;101036.75;;;18.68;100.00
15272;BME280;7737;51.578;7.268;2023-07-13T07:02:13;101026.69;;;18.59;100.00
15272;BME280;7737;51.578;7.268;2023-07-13T07:04:40;101031.16;;;18.37;100.00
15272;BME280;7737;51.578;7.268;2023-07-13T07:07:06;101025.00;;;18.58;100.00
15272;BME280;7737;51.578;7.268;2023-07-13T07:09:33;101032.47;;;18.66;100.00
15272;BME280;7737;51.578;7.268;2023-07-13T07:11:59;101035.03;;;18.67;100.00
15272;BME280;7737;51.578;7.268;2023-07-13T07:14:26;101028.09;;;18.41;100.00
15272;BME280;7737;51.578;7.268;2023-07-13T07:16:52;101037.13;;;18.40;100.00
15272;BME280;7737;51.578;7.268;2023-07-13T07:19:20;101039.19;;;18.60;100.00
15272;BME280;7737;51.578;7.268;2023-07-13T07:21:46;101036.28;;;18.85;100.00
15272;BME280;7737;51.578;7.268;2023-07-13T07:24:13;101032.25;;;19.02;100.00
15272;BME280;7737;51.578;7.268;2023-07-13T07:26:41;101027.97;;;18.89;100.00
15272;BME280;7737;51.578;7.268;2023-07-13T07:29:07;101035.56;;;18.83;100.00
15272;BME280;7737;51.578;7.268;2023-07-13T07:31:34;101032.50;;;19.10;100.00
15272;BME280;7737;51.578;7.268;2023-07-13T07:34:02;101026.63;;;19.38;100.00
15272;BME280;7737;51.578;7.268;2023-07-13T07:36:30;101020.75;;;19.44;100.00
15272;BME280;7737;51.578;7.268;2023-07-13T07:38:56;101024.44;;;19.21;100.00
15272;BME280;7737;51.578;7.268;2023-07-13T07:41:23;101029.94;;;19.09;100.00
15272;BME280;7737;51.578;7.268;2023-07-13T07:43:49;101026.97;;;19.23;100.00
15272;BME280;7737;51.578;7.268;2023-07-13T07:46:16;101028.09;;;19.31;100.00
15272;BME280;7737;51.578;7.268;2023-07-13T07:48:42;101021.31;;;19.59;100.00
15272;BME280;7737;51.578;7.268;2023-07-13T07:51:09;101018.13;;;19.54;100.00
15272;BME280;7737;51.578;7.268;2023-07-13T07:53:37;101024.00;;;19.59;100.00
15272;BME280;7737;51.578;7.268;2023-07-13T07:56:03;101021.06;;;19.62;100.00
15272;BME280;7737;51.578;7.268;2023-07-13T07:58:30;101015.25;;;20.10;100.00
15272;BME280;7737;51.578;7.268;2023-07-13T08:01:02;101013.75;;;19.96;100.00
15272;BME280;7737;51.578;7.268;2023-07-13T08:03:29;101010.91;;;19.97;100.00
15272;BME280;7737;51.578;7.268;2023-07-13T08:05:56;101018.03;;;19.56;100.00
15272;BME280;7737;51.578;7.268;2023-07-13T08:08:22;101022.13;;;19.82;100.00
15272;BME280;7737;51.578;7.268;2023-07-13T08:10:50;101014.56;;;19.65;100.00
15272;BME280;7737;51.578;7.268;2023-07-13T08:13:17;101010.03;;;19.97;100.00
15272;BME280;7737;51.578;7.268;2023-07-13T08:15:43;101012.56;;;20.10;100.00
15272;BME280;7737;51.578;7.268;2023-07-13T08:18:10;101004.78;;;19.95;100.00
15272;BME280;7737;51.578;7.268;2023-07-13T08:20:37;101010.91;;;20.29;100.00
15272;BME280;7737;51.578;7.268;2023-07-13T08:23:04;101000.66;;;20.12;100.00
15272;BME280;7737;51.578;7.268;2023-07-13T08:25:31;100998.94;;;20.11;100.00
15272;BME280;7737;51.578;7.268;2023-07-13T08:27:59;100998.44;;;20.17;100.00
15272;BME280;7737;51.578;7.268;2023-07-13T08:30:25;100994.22;;;20.65;100.00
15272;BME280;7737;51.578;7.268;2023-07-13T08:32:53;100997.47;;;20.39;100.00
15272;BME280;7737;51.578;7.268;2023-07-13T08:35:19;100982.13;;;20.39;100.00
15272;BME280;7737;51.578;7.268;2023-07-13T08:37:46;100987.91;;;20.55;100.00
15272;BME280;7737;51.578;7.268;2023-07-13T08:40:13;100983.53;;;20.85;100.00
15272;BME280;7737;51.578;7.268;2023-07-13T08:42:45;100980.97;;;20.83;100.00
15272;BME280;7737;51.578;7.268;2023-07-13T08:45:20;100976.25;;;20.55;100.00
15272;BME280;7737;51.578;7.268;2023-07-13T08:47:52;100976.63;;;20.71;100.00
15272;BME280;7737;51.578;7.268;2023-07-13T08:50:23;100969.59;;;20.89;100.00
15272;BME280;7737;51.578;7.268;2023-07-13T08:52:52;100979.59;;;20.98;100.00
15272;BME280;7737;51.578;7.268;2023-07-13T08:55:21;100975.06;;;20.99;100.00
15272;BME280;7737;51.578;7.268;2023-07-13T08:57:54;100977.81;;;21.08;100.00
15272;BME280;7737;51.578;7.268;2023-07-13T09:00:25;100973.28;;;21.09;100.00
15272;BME280;7737;51.578;7.268;2023-07-13T09:02:57;100983.97;;;20.90;100.00
15272;BME280;7737;51.578;7.268;2023-07-13T09:05:29;100978.00;;;20.86;100.00
15272;BME280;7737;51.578;7.268;2023-07-13T09:08:14;100969.16;;;20.84;100.00
15272;BME280;7737;51.578;7.268;2023-07-13T09:10:45;100967.41;;;21.04;100.00
15272;BME280;7737;51.578;7.268;2023-07-13T09:13:22;100988.63;;;20.78;100.00
15272;BME280;7737;51.578;7.268;2023-07-13T09:15:55;100973.03;;;20.91;100.00
15272;BME280;7737;51.578;7.268;2023-07-13T09:18:26;100973.53;;;20.76;100.00
15272;BME280;7737;51.578;7.268;2023-07-13T09:20:57;100962.34;;;20.90;100.00
15272;BME280;7737;51.578;7.268;2023-07-13T09:23:27;100966.81;;;21.00;100.00
15272;BME280;7737;51.578;7.268;2023-07-13T09:26:02;100961.16;;;21.62;100.00
15272;BME280;7737;51.578;7.268;2023-07-13T09:28:36;100967.44;;;21.63;100.00
15272;BME280;7737;51.578;7.268;2023-07-13T09:31:09;100966.53;;;21.53;100.00
15272;BME280;7737;51.578;7.268;2023-07-13T09:33:38;100969.25;;;21.53;100.00
15272;BME280;7737;51.578;7.268;2023-07-13T09:36:17;100979.47;;;21.30;100.00
15272;BME280;7737;51.578;7.268;2023-07-13T09:38:45;100964.88;;;21.71;100.00
15272;BME280;7737;51.578;7.268;2023-07-13T09:41:19;100968.47;;;21.91;100.00
15272;BME280;7737;51.578;7.268;2023-07-13T09:44:07;100960.19;;;22.11;100.00
15272;BME280;7737;51.578;7.268;2023-07-13T09:46:36;100962.75;;;22.03;100.00
15272;BME280;7737;51.578;7.268;2023-07-13T09:49:03;100943.63;;;22.33;100.00
15272;BME280;7737;51.578;7.268;2023-07-13T09:51:29;100954.66;;;22.78;99.06
15272;BME280;7737;51.578;7.268;2023-07-13T09:53:56;100955.00;;;22.93;99.01
15272;BME280;7737;51.578;7.268;2023-07-13T09:56:26;100944.72;;;22.60;96.86
15272;BME280;7737;51.578;7.268;2023-07-13T09:58:53;100938.72;;;22.56;96.18
15272;BME280;7737;51.578;7.268;2023-07-13T10:01:31;100938.38;;;22.22;94.93
15272;BME280;7737;51.578;7.268;2023-07-13T10:04:00;100942.44;;;22.45;96.17
15272;BME280;7737;51.578;7.268;2023-07-13T10:06:27;100945.94;;;22.19;95.58
15272;BME280;7737;51.578;7.268;2023-07-13T10:08:56;100944.53;;;21.96;95.51
15272;BME280;7737;51.578;7.268;2023-07-13T10:11:26;100964.78;;;22.01;96.82
15272;BME280;7737;51.578;7.268;2023-07-13T10:13:55;100962.63;;;21.95;97.69
15272;BME280;7737;51.578;7.268;2023-07-13T10:16:23;100967.06;;;22.15;97.42
15272;BME280;7737;51.578;7.268;2023-07-13T10:18:55;100958.38;;;22.77;97.09
15272;BME280;7737;51.578;7.268;2023-07-13T10:21:27;100957.03;;;22.91;95.53
15272;BME280;7737;51.578;7.268;2023-07-13T10:23:57;100948.03;;;22.63;93.68
15272;BME280;7737;51.578;7.268;2023-07-13T10:26:29;100955.81;;;22.76;93.40
15272;BME280;7737;51.578;7.268;2023-07-13T10:29:03;100959.34;;;22.20;94.08
15272;BME280;7737;51.578;7.268;2023-07-13T10:31:34;100964.06;;;21.99;94.73
15272;BME280;7737;51.578;7.268;2023-07-13T10:34:03;100970.31;;;22.19;95.57
15272;BME280;7737;51.578;7.268;2023-07-13T10:36:34;100964.19;;;22.17;94.24
15272;BME280;7737;51.578;7.268;2023-07-13T10:39:06;100967.91;;;21.97;94.05
15272;BME280;7737;51.578;7.268;2023-07-13T10:41:37;100971.63;;;21.86;94.66
15272;BME280;7737;51.578;7.268;2023-07-13T10:44:15;100973.03;;;22.09;94.26
15272;BME280;7737;51.578;7.268;2023-07-13T10:46:43;100968.91;;;22.15;94.33
15272;BME280;7737;51.578;7.268;2023-07-13T10:49:11;100982.13;;;22.27;94.47
15272;BME280;7737;51.578;7.268;2023-07-13T10:51:40;100980.69;;;22.52;94.83
15272;BME280;7737;51.578;7.268;2023-07-13T10:54:18;100980.38;;;22.65;94.42
15272;BME280;7737;51.578;7.268;2023-07-13T10:56:49;100977.25;;;22.40;95.43
15272;BME280;7737;51.578;7.268;2023-07-13T10:59:20;100971.31;;;22.37;94.58
15272;BME280;7737;51.578;7.268;2023-07-13T11:01:55;100966.34;;;22.13;93.44
15272;BME280;7737;51.578;7.268;2023-07-13T11:04:24;100972.75;;;22.12;92.58
15272;BME280;7737;51.578;7.268;2023-07-13T11:06:59;100981.16;;;21.90;93.05
15272;BME280;7737;51.578;7.268;2023-07-13T11:09:39;100985.16;;;22.05;94.33
15272;BME280;7737;51.578;7.268;2023-07-13T11:12:26;100991.28;;;22.17;94.07
15272;BME280;7737;51.578;7.268;2023-07-13T11:15:09;100977.88;;;21.96;93.98
15272;BME280;7737;51.578;7.268;2023-07-13T11:17:47;100994.28;;;22.04;94.46
15272;BME280;7737;51.578;7.268;2023-07-13T11:20:38;100971.66;;;23.08;92.41
15272;BME280;7737;51.578;7.268;2023-07-13T11:23:27;100954.38;;;22.81;89.68
15272;BME280;7737;51.578;7.268;2023-07-13T11:25:53;100949.63;;;23.47;90.55
15272;BME280;7737;51.578;7.268;2023-07-13T11:28:25;100941.56;;;23.73;89.08
15272;BME280;7737;51.578;7.268;2023-07-13T11:31:03;100922.63;;;24.16;85.66
15272;BME280;7737;51.578;7.268;2023-07-13T11:33:58;100897.41;;;23.89;81.02
15272;BME280;7737;51.578;7.268;2023-07-13T11:36:30;100889.47;;;24.64;79.85
15272;BME280;7737;51.578;7.268;2023-07-13T11:39:02;100882.72;;;24.43;78.35
15272;BME280;7737;51.578;7.268;2023-07-13T11:41:31;100875.13;;;24.80;78.02
15272;BME280;7737;51.578;7.268;2023-07-13T11:44:12;100884.19;;;24.63;77.98
15272;BME280;7737;51.578;7.268;2023-07-13T11:46:44;100860.03;;;24.86;75.08
15272;BME280;7737;51.578;7.268;2023-07-13T11:49:15;100840.78;;;24.45;73.35
15272;BME280;7737;51.578;7.268;2023-07-13T11:51:42;100840.41;;;24.74;73.17
15272;BME280;7737;51.578;7.268;2023-07-13T11:54:20;100847.72;;;24.40;73.28
15272;BME280;7737;51.578;7.268;2023-07-13T11:56:49;100834.25;;;25.14;71.53
15272;BME280;7737;51.578;7.268;2023-07-13T11:59:17;100808.03;;;25.05;68.83
15272;BME280;7737;51.578;7.268;2023-07-13T12:01:46;100814.88;;;25.17;68.74
15272;BME280;7737;51.578;7.268;2023-07-13T12:04:23;100796.16;;;25.06;67.75
15272;BME280;7737;51.578;7.268;2023-07-13T12:06:56;100807.63;;;25.74;67.77
15272;BME280;7737;51.578;7.268;2023-07-13T12:09:27;100784.63;;;25.44;65.15
15272;BME280;7737;51.578;7.268;2023-07-13T12:11:53;100814.06;;;25.32;66.74
15272;BME280;7737;51.578;7.268;2023-07-13T12:14:20;100796.53;;;25.43;65.23
15272;BME280;7737;51.578;7.268;2023-07-13T12:16:50;100790.06;;;25.28;64.13
15272;BME280;7737;51.578;7.268;2023-07-13T12:19:18;100792.47;;;25.55;63.96
15272;BME280;7737;51.578;7.268;2023-07-13T12:21:46;100782.97;;;25.51;62.50
15272;BME280;7737;51.578;7.268;2023-07-13T12:24:18;100804.88;;;25.74;63.94
15272;BME280;7737;51.578;7.268;2023-07-13T12:26:52;100791.75;;;25.29;63.22
15272;BME280;7737;51.578;7.268;2023-07-13T12:29:19;100789.72;;;25.23;61.86
15272;BME280;7737;51.578;7.268;2023-07-13T12:31:48;100804.94;;;24.92;63.68
15272;BME280;7737;51.578;7.268;2023-07-13T12:34:18;100819.72;;;24.81;64.26
15272;BME280;7737;51.578;7.268;2023-07-13T12:36:47;100806.78;;;25.73;63.81
15272;BME280;7737;51.578;7.268;2023-07-13T12:39:17;100810.81;;;25.29;63.70
15272;BME280;7737;51.578;7.268;2023-07-13T12:41:45;100816.78;;;25.40;64.31
15272;BME280;7737;51.578;7.268;2023-07-13T12:44:15;100809.25;;;25.18;62.82
15272;BME280;7737;51.578;7.268;2023-07-13T12:46:54;100792.84;;;24.86;62.85
15272;BME280;7737;51.578;7.268;2023-07-13T12:49:25;100794.16;;;25.88;61.78
15272;BME280;7737;51.578;7.268;2023-07-13T12:51:56;100791.97;;;25.60;61.63
15272;BME280;7737;51.578;7.268;2023-07-13T12:54:24;100786.63;;;26.23;60.98
15272;BME280;7737;51.578;7.268;2023-07-13T12:56:52;100774.78;;;25.67;60.09
15272;BME280;7737;51.578;7.268;2023-07-13T12:59:23;100777.19;;;25.62;59.14
15272;BME280;7737;51.578;7.268;2023-07-13T13:01:51;100762.88;;;25.52;58.78